Terminal Aerodrome Forecast
Issued by NWS Omaha/Valley, NE

Home | Current Version | Previous Version | Graphics & Text | Print | Product List | Glossary On
Versions: 1 2 3 4 5 6 7 8 9 10 11 12 13 14
000
FTUS43 KOAX 271120
TAFOFK
TAF
KOFK 271120Z 2712/2812 29006KT P6SM SKC
     FM271700 30012G20KT P6SM FEW250
     FM272300 32010KT P6SM SCT250
     FM280300 VRB04KT P6SM SKC=

USA.gov is the U.S. government's official web portal to all federal, state and local government web resources and services.